Ns Spirit — ER2658 — position and weather

sailwx.info

Track history (hours):
 
Tides and Currents Weather Stations Pressure Air Temp Water Temp Dewpoint Dewpoint Depression Visibility Wind Speed Wind Dir Waves Ship Positions

Ns Spirit

Last reported at 2017-Nov-13 23:48 UTC. Time now 2017-Nov-21 02:26 UTC.
Position N 44°30' E 012°27'.

Length 89 m; draft 3.3 m.

Type: Cargo ship. MMSI: 214182658.

Date/timePositionNaut miles runAvg speedWind from/ knotsBaromVisibWave heightAir tempDewpointWater temp
2017-Nov-13 23:48N 44°30' E 012°27'1 0.0
2017-Nov-12 23:58N 44°31' E 012°28'0 0.0
2017-Nov-12 16:13N 44°31' E 012°28'0 0.0
2017-Nov-12 15:58N 44°31' E 012°28'0 0.0
2017-Nov-12 15:28N 44°31' E 012°28'0 0.0
2017-Nov-12 14:58N 44°31' E 012°28'0 0.0
2017-Nov-12 14:28N 44°31' E 012°28'0 0.0
2017-Nov-12 13:55N 44°31' E 012°28'0 0.1
2017-Nov-12 13:22N 44°31' E 012°28'0 0.0
2017-Nov-12 12:46N 44°31' E 012°28'0 0.0
2017-Nov-12 12:28N 44°31' E 012°28'0 0.0
2017-Nov-12 11:55N 44°31' E 012°28'0 0.0
2017-Nov-12 11:28N 44°31' E 012°28'0 0.0
2017-Nov-12 11:01N 44°31' E 012°28'0 0.0
2017-Nov-12 10:30N 44°31' E 012°28'0 0.0
2017-Nov-12 09:48N 44°31' E 012°28'0 0.0
2017-Nov-12 09:18N 44°31' E 012°28'0 0.0
2017-Nov-12 08:51N 44°31' E 012°28'0 0.0
2017-Nov-12 07:39N 44°31' E 012°28'0 0.0
2017-Nov-12 07:18N 44°31' E 012°28'0 0.0
2017-Nov-12 06:54N 44°31' E 012°28'0 0.0
2017-Nov-12 06:30N 44°31' E 012°28'0 0.0
2017-Nov-12 05:57N 44°31' E 012°28'0 0.0
2017-Nov-12 05:00N 44°31' E 012°28'0 0.0
2017-Nov-12 04:27N 44°31' E 012°28'0 0.0
2017-Nov-12 03:42N 44°31' E 012°28'0 0.0
2017-Nov-12 02:48N 44°31' E 012°28'0 0.0
2017-Nov-12 02:21N 44°31' E 012°28'0 0.0
2017-Nov-12 01:51N 44°31' E 012°28'0 0.1
2017-Nov-12 01:30N 44°31' E 012°28'0 0.0
2017-Nov-12 00:57N 44°31' E 012°28'0 0.0
2017-Nov-11 23:36N 44°31' E 012°28'0 0.0
2017-Nov-11 20:48N 44°31' E 012°28'0 0.2
2017-Nov-11 20:27N 44°31' E 012°28'25 8.7
2017-Nov-11 17:38N 44°31' E 013°02'1 9.2
2017-Nov-11 17:30N 44°31' E 013°03'5 9.2
2017-Nov-11 17:00N 44°28' E 013°08'5 9.2
2017-Nov-11 16:30N 44°25' E 013°14'5 9.3
2017-Nov-11 16:00N 44°22' E 013°19'  
Track history (hours):
 
Tides and Currents Weather Stations Pressure Air Temp Water Temp Dewpoint Dewpoint Depression Visibility Wind Speed Wind Dir Waves Ship Positions

Ns Spirit

Last reported at 2017-Nov-13 23:48 UTC. Time now 2017-Nov-21 02:26 UTC.
Position N 44°30' E 012°27'.

Length 89 m; draft 3.3 m.

Type: Cargo ship. MMSI: 214182658.

Date/timePositionNaut miles runAvg speedWind from/ knotsBaromVisibWave heightAir tempDewpointWater temp
2017-Nov-13 23:48N 44°30' E 012°27'1 0.0
2017-Nov-12 23:58N 44°31' E 012°28'0 0.0
2017-Nov-12 16:13N 44°31' E 012°28'0 0.0
2017-Nov-12 15:58N 44°31' E 012°28'0 0.0
2017-Nov-12 15:28N 44°31' E 012°28'0 0.0
2017-Nov-12 14:58N 44°31' E 012°28'0 0.0
2017-Nov-12 14:28N 44°31' E 012°28'0 0.0
2017-Nov-12 13:55N 44°31' E 012°28'0 0.1
2017-Nov-12 13:22N 44°31' E 012°28'0 0.0
2017-Nov-12 12:46N 44°31' E 012°28'0 0.0
2017-Nov-12 12:28N 44°31' E 012°28'0 0.0
2017-Nov-12 11:55N 44°31' E 012°28'0 0.0
2017-Nov-12 11:28N 44°31' E 012°28'0 0.0
2017-Nov-12 11:01N 44°31' E 012°28'0 0.0
2017-Nov-12 10:30N 44°31' E 012°28'0 0.0
2017-Nov-12 09:48N 44°31' E 012°28'0 0.0
2017-Nov-12 09:18N 44°31' E 012°28'0 0.0
2017-Nov-12 08:51N 44°31' E 012°28'0 0.0
2017-Nov-12 07:39N 44°31' E 012°28'0 0.0
2017-Nov-12 07:18N 44°31' E 012°28'0 0.0
2017-Nov-12 06:54N 44°31' E 012°28'0 0.0
2017-Nov-12 06:30N 44°31' E 012°28'0 0.0
2017-Nov-12 05:57N 44°31' E 012°28'0 0.0
2017-Nov-12 05:00N 44°31' E 012°28'0 0.0
2017-Nov-12 04:27N 44°31' E 012°28'0 0.0
2017-Nov-12 03:42N 44°31' E 012°28'0 0.0
2017-Nov-12 02:48N 44°31' E 012°28'0 0.0
2017-Nov-12 02:21N 44°31' E 012°28'0 0.0
2017-Nov-12 01:51N 44°31' E 012°28'0 0.1
2017-Nov-12 01:30N 44°31' E 012°28'0 0.0
2017-Nov-12 00:57N 44°31' E 012°28'0 0.0
2017-Nov-11 23:36N 44°31' E 012°28'0 0.0
2017-Nov-11 20:48N 44°31' E 012°28'0 0.2
2017-Nov-11 20:27N 44°31' E 012°28'25 8.7
2017-Nov-11 17:38N 44°31' E 013°02'1 9.2
2017-Nov-11 17:30N 44°31' E 013°03'5 9.2
2017-Nov-11 17:00N 44°28' E 013°08'5 9.2
2017-Nov-11 16:30N 44°25' E 013°14'5 9.3
2017-Nov-11 16:00N 44°22' E 013°19'  

Dump ship's entire track history